createdAt,value
2018-01-08T00:00:29.123Z,49.25
2018-01-08T00:01:00.746Z,49.38
2018-01-08T00:01:32.430Z,49.47
2018-01-08T00:02:04.062Z,49.58
2018-01-08T00:02:35.686Z,49.70
2018-01-08T00:03:07.310Z,49.88
2018-01-08T00:03:38.938Z,49.97
2018-01-08T00:04:10.837Z,50.11
2018-01-08T00:04:42.458Z,50.08
2018-01-08T00:05:14.082Z,50.20
2018-01-08T00:05:45.714Z,50.27
2018-01-08T00:06:17.346Z,50.41
2018-01-08T00:06:49.026Z,50.40
2018-01-08T00:07:20.649Z,50.47
2018-01-08T00:07:52.278Z,50.64
2018-01-08T00:08:23.907Z,50.74
2018-01-08T00:08:55.530Z,50.68
2018-01-08T00:09:27.158Z,50.72
2018-01-08T00:09:58.798Z,50.86
2018-01-08T00:10:30.426Z,50.92
2018-01-08T00:11:02.055Z,51.01
2018-01-08T00:11:33.683Z,51.07
2018-01-08T00:12:05.354Z,51.20
2018-01-08T00:12:36.977Z,51.34
2018-01-08T00:13:08.599Z,51.27
2018-01-08T00:13:40.223Z,51.39
2018-01-08T00:14:11.862Z,51.38
2018-01-08T00:14:43.492Z,51.37
2018-01-08T00:15:15.126Z,51.42
2018-01-08T00:15:46.745Z,51.51
2018-01-08T00:16:18.370Z,51.53
2018-01-08T00:16:50.047Z,51.69
2018-01-08T00:17:21.670Z,51.77
2018-01-08T00:17:53.294Z,51.84
2018-01-08T00:18:24.921Z,51.80
2018-01-08T00:18:56.550Z,51.80
2018-01-08T00:19:28.174Z,51.86
2018-01-08T00:19:59.802Z,51.95
2018-01-08T00:20:31.429Z,52.12
2018-01-08T00:21:03.084Z,52.13
2018-01-08T00:21:34.710Z,52.18
2018-01-08T00:22:06.397Z,52.21
2018-01-08T00:22:38.022Z,52.24
2018-01-08T00:23:09.650Z,52.51
2018-01-08T00:23:41.274Z,52.39
2018-01-08T00:24:12.897Z,52.44
2018-01-08T00:24:44.530Z,52.55
2018-01-08T00:25:16.153Z,52.52
2018-01-08T00:25:47.777Z,52.60
2018-01-08T00:26:19.398Z,52.73
2018-01-08T00:26:51.026Z,52.71
2018-01-08T00:27:22.702Z,52.74
2018-01-08T00:27:54.331Z,52.81
2018-01-08T00:28:25.953Z,52.88
2018-01-08T00:28:57.578Z,52.98
2018-01-08T00:29:29.203Z,52.98
2018-01-08T00:30:00.830Z,53.01
2018-01-08T00:30:32.454Z,53.02
2018-01-08T00:31:04.074Z,53.02
2018-01-08T00:31:35.697Z,53.03
2018-01-08T00:32:07.348Z,53.01
2018-01-08T00:32:38.974Z,53.00
2018-01-08T00:33:10.603Z,53.05
2018-01-08T00:33:42.235Z,53.12
2018-01-08T00:34:13.874Z,53.21
2018-01-08T00:34:45.506Z,53.32
2018-01-08T00:35:17.135Z,53.48
2018-01-08T00:35:48.762Z,53.54
2018-01-08T00:36:20.390Z,53.49
2018-01-08T00:36:52.014Z,53.47
2018-01-08T00:37:23.638Z,53.66
2018-01-08T00:37:55.318Z,53.62
2018-01-08T00:38:26.941Z,53.88
2018-01-08T00:38:58.562Z,53.91
2018-01-08T00:39:30.186Z,53.94
2018-01-08T00:40:01.810Z,54.00
2018-01-08T00:40:33.438Z,54.08
2018-01-08T00:41:05.066Z,54.03
2018-01-08T00:41:36.697Z,54.10
2018-01-08T00:42:08.326Z,54.45
2018-01-08T00:42:39.954Z,54.24
2018-01-08T00:43:11.630Z,54.28
2018-01-08T00:43:43.250Z,54.58
2018-01-08T00:44:14.879Z,54.53
2018-01-08T00:44:46.510Z,54.25
2018-01-08T00:45:18.134Z,54.30
2018-01-08T00:45:49.763Z,54.44
2018-01-08T00:46:21.390Z,54.50
2018-01-08T00:46:53.014Z,54.62
2018-01-08T00:47:24.642Z,54.66
2018-01-08T00:47:56.266Z,54.76
2018-01-08T00:48:27.938Z,54.68
2018-01-08T00:48:59.562Z,54.72
2018-01-08T00:49:31.190Z,54.79
2018-01-08T00:50:02.814Z,54.60
2018-01-08T00:50:34.439Z,54.85
2018-01-08T00:51:06.067Z,54.89
2018-01-08T00:51:37.698Z,55.02
2018-01-08T00:52:09.326Z,54.84
2018-01-08T00:52:40.946Z,54.80
2018-01-08T00:53:12.566Z,54.85
2018-01-08T00:53:44.419Z,54.94
2018-01-08T00:54:16.046Z,54.87
2018-01-08T00:54:47.670Z,55.02
2018-01-08T00:55:19.300Z,55.12
2018-01-08T00:55:50.922Z,55.06
2018-01-08T00:56:22.550Z,55.28
2018-01-08T00:56:54.173Z,55.48
2018-01-08T00:57:25.802Z,55.35
2018-01-08T00:57:57.431Z,55.60
2018-01-08T00:58:29.058Z,55.79
2018-01-08T00:59:00.743Z,55.88
2018-01-08T00:59:32.370Z,55.57
2018-01-08T01:00:03.998Z,55.80
2018-01-08T01:00:35.622Z,55.85
2018-01-08T01:01:07.250Z,55.72
2018-01-08T01:01:38.878Z,55.71
2018-01-08T01:02:10.511Z,55.74
2018-01-08T01:02:42.139Z,55.77
2018-01-08T01:03:13.770Z,55.76
2018-01-08T01:03:45.394Z,55.84
2018-01-08T01:04:17.174Z,55.81
2018-01-08T01:04:48.802Z,55.90
2018-01-08T01:05:20.434Z,55.88
2018-01-08T01:05:52.062Z,55.80
2018-01-08T01:06:23.686Z,55.75
2018-01-08T01:06:55.310Z,55.87
2018-01-08T01:07:26.934Z,55.96
2018-01-08T01:07:58.563Z,55.89
2018-01-08T01:08:30.190Z,55.93
2018-01-08T01:09:01.819Z,55.98
2018-01-08T01:09:33.446Z,55.96
2018-01-08T01:10:05.070Z,56.05
2018-01-08T01:10:36.698Z,55.98
2018-01-08T01:11:08.330Z,56.14
2018-01-08T01:11:39.958Z,56.19
2018-01-08T01:12:11.582Z,56.27
2018-01-08T01:12:43.210Z,56.32
2018-01-08T01:13:14.834Z,56.38
2018-01-08T01:13:46.462Z,56.43
2018-01-08T01:14:18.091Z,56.32
2018-01-08T01:14:49.771Z,56.43
2018-01-08T01:15:21.394Z,56.38
2018-01-08T01:15:53.029Z,56.40
2018-01-08T01:16:24.654Z,56.46
2018-01-08T01:16:56.279Z,56.58
2018-01-08T01:17:27.901Z,56.69
2018-01-08T01:17:59.530Z,56.68
2018-01-08T01:18:31.158Z,56.82
2018-01-08T01:19:02.786Z,56.84
2018-01-08T01:19:34.410Z,56.84
2018-01-08T01:20:06.086Z,56.90
2018-01-08T01:20:37.709Z,56.97
2018-01-08T01:21:09.333Z,57.05
2018-01-08T01:21:40.963Z,57.02
2018-01-08T01:22:12.587Z,57.01
2018-01-08T01:22:44.214Z,56.97
2018-01-08T01:23:15.842Z,56.96
2018-01-08T01:23:47.466Z,56.94
2018-01-08T01:24:19.096Z,56.82
2018-01-08T01:24:50.728Z,56.97
2018-01-08T01:25:22.402Z,56.90
2018-01-08T01:25:54.030Z,56.88
2018-01-08T01:26:25.654Z,57.01
2018-01-08T01:26:57.282Z,56.92
2018-01-08T01:27:28.958Z,56.91
2018-01-08T01:28:00.587Z,56.96
2018-01-08T01:28:32.210Z,56.98
2018-01-08T01:29:03.838Z,56.98
2018-01-08T01:29:35.462Z,56.89
2018-01-08T01:30:07.086Z,56.80
2018-01-08T01:30:38.762Z,56.89
2018-01-08T01:31:10.390Z,56.90
2018-01-08T01:31:42.014Z,56.85
2018-01-08T01:32:13.647Z,56.81
2018-01-08T01:32:45.269Z,56.85
2018-01-08T01:33:16.893Z,56.93
2018-01-08T01:33:48.514Z,56.72
2018-01-08T01:34:20.143Z,56.68
2018-01-08T01:34:51.766Z,56.71
2018-01-08T01:35:23.394Z,56.64
2018-01-08T01:35:55.067Z,56.51
2018-01-08T01:36:26.698Z,56.49
2018-01-08T01:36:58.326Z,56.40
2018-01-08T01:37:29.950Z,56.37
2018-01-08T01:38:01.578Z,56.37
2018-01-08T01:38:33.216Z,56.28
2018-01-08T01:39:04.846Z,56.21
2018-01-08T01:39:36.474Z,56.14
2018-01-08T01:40:08.098Z,56.11
2018-01-08T01:40:39.723Z,56.18
2018-01-08T01:41:11.398Z,56.47
2018-01-08T01:41:43.026Z,56.40
2018-01-08T01:42:14.650Z,56.37
2018-01-08T01:42:46.273Z,56.34
2018-01-08T01:43:17.907Z,56.51
2018-01-08T01:43:49.533Z,56.56
2018-01-08T01:44:21.166Z,56.51
2018-01-08T01:44:52.789Z,56.49
2018-01-08T01:45:24.418Z,56.47
2018-01-08T01:45:56.050Z,56.53
2018-01-08T01:46:27.726Z,56.71
2018-01-08T01:46:59.354Z,56.76
2018-01-08T01:47:30.982Z,56.70
2018-01-08T01:48:02.610Z,56.62
2018-01-08T01:48:34.234Z,56.52
2018-01-08T01:49:05.857Z,56.49
2018-01-08T01:49:37.482Z,56.84
2018-01-08T01:50:09.111Z,56.75
2018-01-08T01:50:40.738Z,56.88
2018-01-08T01:51:12.372Z,56.65
2018-01-08T01:51:44.006Z,56.85
2018-01-08T01:52:15.635Z,56.58
2018-01-08T01:52:47.270Z,56.82
2018-01-08T01:53:18.958Z,56.65
2018-01-08T01:53:50.568Z,56.59
2018-01-08T01:54:22.203Z,56.59
2018-01-08T01:54:53.826Z,56.65
2018-01-08T01:55:25.455Z,56.67
2018-01-08T01:55:57.078Z,56.72
2018-01-08T01:56:28.697Z,56.53
2018-01-08T01:57:00.374Z,56.53
2018-01-08T01:57:32.003Z,56.67
2018-01-08T01:58:03.634Z,56.53
2018-01-08T01:58:35.266Z,56.50
2018-01-08T01:59:06.895Z,56.59
2018-01-08T01:59:38.523Z,56.69
2018-01-08T02:00:10.150Z,56.72
2018-01-08T02:00:41.774Z,56.68
2018-01-08T02:01:13.403Z,56.85
2018-01-08T02:01:45.026Z,56.60
2018-01-08T02:02:16.698Z,56.80
2018-01-08T02:02:48.330Z,56.76
2018-01-08T02:03:19.958Z,56.61
2018-01-08T02:03:51.586Z,56.49
2018-01-08T02:04:23.222Z,56.33
2018-01-08T02:04:54.850Z,56.66
2018-01-08T02:05:26.478Z,56.49
2018-01-08T02:05:58.106Z,56.37
2018-01-08T02:06:29.730Z,56.43
2018-01-08T02:07:01.359Z,56.49
2018-01-08T02:07:33.039Z,56.64
2018-01-08T02:08:04.670Z,56.32
2018-01-08T02:08:36.298Z,56.45
2018-01-08T02:09:07.926Z,56.15
2018-01-08T02:09:39.550Z,56.16
2018-01-08T02:10:11.178Z,56.26
2018-01-08T02:10:42.801Z,56.33
2018-01-08T02:11:14.430Z,56.24
2018-01-08T02:11:46.055Z,56.27
2018-01-08T02:12:17.681Z,56.27
2018-01-08T02:12:49.394Z,56.26
2018-01-08T02:13:21.024Z,56.30
2018-01-08T02:13:52.650Z,56.52
2018-01-08T02:14:24.277Z,56.40
2018-01-08T02:14:55.906Z,56.49
2018-01-08T02:15:27.534Z,56.56
2018-01-08T02:15:59.158Z,56.49
2018-01-08T02:16:30.782Z,56.72
2018-01-08T02:17:02.411Z,56.77
2018-01-08T02:17:34.038Z,56.92
2018-01-08T02:18:05.714Z,56.77
2018-01-08T02:18:37.333Z,56.78
2018-01-08T02:19:08.962Z,56.85
2018-01-08T02:19:40.586Z,56.87
2018-01-08T02:20:12.210Z,56.86
2018-01-08T02:20:43.833Z,56.93
2018-01-08T02:21:15.463Z,57.07
2018-01-08T02:21:47.094Z,56.98
2018-01-08T02:22:18.717Z,56.96
2018-01-08T02:22:50.342Z,57.05
2018-01-08T02:23:22.018Z,57.05
2018-01-08T02:23:53.646Z,57.11
2018-01-08T02:24:25.275Z,57.18
2018-01-08T02:24:56.902Z,57.16
2018-01-08T02:25:28.527Z,57.29
2018-01-08T02:26:00.162Z,57.29
2018-01-08T02:26:31.790Z,57.31
2018-01-08T02:27:03.414Z,57.44
2018-01-08T02:27:35.034Z,57.31
2018-01-08T02:28:06.662Z,57.46
2018-01-08T02:28:38.294Z,57.54
2018-01-08T02:29:09.922Z,57.74
2018-01-08T02:29:41.551Z,57.98
2018-01-08T02:30:13.182Z,58.04
2018-01-08T02:30:44.806Z,57.93
2018-01-08T02:31:16.435Z,57.83
2018-01-08T02:31:48.066Z,57.81
2018-01-08T02:32:19.698Z,57.87
2018-01-08T02:32:51.321Z,57.74
2018-01-08T02:33:22.956Z,57.82
2018-01-08T02:33:54.635Z,57.74
2018-01-08T02:34:26.262Z,57.97
2018-01-08T02:34:57.885Z,57.99
2018-01-08T02:35:29.519Z,57.94
2018-01-08T02:36:01.154Z,58.01
2018-01-08T02:36:32.787Z,58.01
2018-01-08T02:37:04.418Z,57.97
2018-01-08T02:37:36.047Z,58.10
2018-01-08T02:38:07.671Z,58.05
2018-01-08T02:38:39.300Z,57.92
2018-01-08T02:39:10.980Z,57.96
2018-01-08T02:39:42.614Z,57.95
2018-01-08T02:40:14.241Z,58.03
2018-01-08T02:40:45.866Z,57.95
2018-01-08T02:41:17.496Z,57.99
2018-01-08T02:41:49.130Z,57.96
2018-01-08T02:42:20.754Z,57.92
2018-01-08T02:42:52.378Z,58.03
2018-01-08T02:43:24.006Z,58.00
2018-01-08T02:43:55.635Z,57.84
2018-01-08T02:44:27.314Z,57.98
2018-01-08T02:44:58.934Z,57.98
2018-01-08T02:45:30.553Z,58.04
2018-01-08T02:46:02.183Z,57.96
2018-01-08T02:46:33.810Z,58.04
2018-01-08T02:47:05.433Z,57.94
2018-01-08T02:47:37.062Z,57.84
2018-01-08T02:48:08.690Z,58.01
2018-01-08T02:48:40.319Z,58.06
2018-01-08T02:49:11.946Z,57.98
2018-01-08T02:49:43.634Z,58.11
2018-01-08T02:50:15.267Z,58.13
2018-01-08T02:50:46.894Z,57.98
2018-01-08T02:51:18.518Z,58.03
2018-01-08T02:51:50.150Z,57.95
2018-01-08T02:52:21.773Z,57.87
2018-01-08T02:52:53.403Z,57.69
2018-01-08T02:53:25.035Z,57.77
2018-01-08T02:53:56.726Z,57.68
2018-01-08T02:54:28.354Z,57.86
2018-01-08T02:55:00.047Z,57.82
2018-01-08T02:55:31.674Z,57.79
2018-01-08T02:56:03.306Z,57.79
2018-01-08T02:56:34.943Z,57.68
2018-01-08T02:57:06.574Z,57.65
2018-01-08T02:57:38.203Z,57.53
2018-01-08T02:58:09.830Z,57.80
2018-01-08T02:58:41.463Z,57.83
2018-01-08T02:59:13.090Z,57.80
2018-01-08T02:59:44.718Z,57.79
2018-01-08T03:00:16.390Z,57.70
2018-01-08T03:00:48.018Z,57.98
2018-01-08T03:01:19.642Z,58.09
2018-01-08T03:01:51.266Z,58.09
2018-01-08T03:02:22.891Z,57.74
2018-01-08T03:02:54.514Z,57.76
2018-01-08T03:03:26.141Z,57.85
2018-01-08T03:03:57.766Z,57.90
2018-01-08T03:04:29.398Z,57.84
2018-01-08T03:05:01.025Z,57.76
2018-01-08T03:05:32.667Z,57.94
2018-01-08T03:06:04.302Z,57.81
2018-01-08T03:06:35.921Z,57.63
2018-01-08T03:07:07.550Z,57.88
2018-01-08T03:07:39.175Z,57.79
2018-01-08T03:08:10.803Z,57.89
2018-01-08T03:08:42.425Z,57.83
2018-01-08T03:09:14.053Z,57.77
2018-01-08T03:09:45.673Z,57.91
2018-01-08T03:10:17.294Z,57.81
2018-01-08T03:10:48.967Z,57.76
2018-01-08T03:11:20.598Z,57.94
2018-01-08T03:11:52.218Z,57.81
2018-01-08T03:12:23.843Z,57.73
2018-01-08T03:12:55.475Z,57.89
2018-01-08T03:13:27.102Z,57.74
2018-01-08T03:13:58.728Z,57.94
2018-01-08T03:14:30.355Z,57.97
2018-01-08T03:15:01.983Z,57.87
2018-01-08T03:15:33.606Z,57.89
2018-01-08T03:16:05.291Z,57.86
2018-01-08T03:16:36.914Z,57.86
2018-01-08T03:17:08.542Z,57.81
2018-01-08T03:17:40.175Z,57.77
2018-01-08T03:18:11.802Z,57.65
2018-01-08T03:18:43.425Z,57.77
2018-01-08T03:19:15.050Z,57.92
2018-01-08T03:19:46.677Z,57.73
2018-01-08T03:20:18.307Z,57.75
2018-01-08T03:20:49.934Z,57.94
2018-01-08T03:21:21.615Z,57.99
2018-01-08T03:21:53.237Z,57.90
2018-01-08T03:22:24.867Z,57.87
2018-01-08T03:22:56.490Z,57.95
2018-01-08T03:23:28.124Z,57.92
2018-01-08T03:23:59.755Z,58.01
2018-01-08T03:24:31.386Z,58.08
2018-01-08T03:25:03.023Z,58.01
2018-01-08T03:25:34.654Z,57.78
2018-01-08T03:26:06.286Z,57.95
2018-01-08T03:26:37.962Z,58.01
2018-01-08T03:27:09.586Z,58.16
2018-01-08T03:27:41.214Z,58.27
2018-01-08T03:28:12.842Z,58.37
2018-01-08T03:28:44.476Z,58.01
2018-01-08T03:29:16.106Z,57.93
2018-01-08T03:29:47.730Z,57.92
2018-01-08T03:30:19.354Z,57.89
2018-01-08T03:30:50.988Z,58.18
2018-01-08T03:31:22.623Z,58.51
2018-01-08T03:31:54.302Z,57.98
2018-01-08T03:32:25.931Z,58.11
2018-01-08T03:32:57.554Z,57.97
2018-01-08T03:33:29.214Z,58.09
2018-01-08T03:34:00.842Z,57.97
2018-01-08T03:34:32.527Z,58.44
2018-01-08T03:35:04.138Z,58.15
2018-01-08T03:35:35.766Z,58.00
2018-01-08T03:36:07.399Z,58.22
2018-01-08T03:36:39.022Z,58.08
2018-01-08T03:37:10.693Z,57.96
2018-01-08T03:37:42.321Z,57.96
2018-01-08T03:38:13.945Z,57.86
2018-01-08T03:38:45.570Z,57.94
2018-01-08T03:39:17.198Z,58.04
2018-01-08T03:39:48.822Z,58.14
2018-01-08T03:40:20.450Z,58.21
2018-01-08T03:40:52.083Z,58.23
2018-01-08T03:41:23.706Z,58.11
2018-01-08T03:41:55.334Z,58.15
2018-01-08T03:42:26.963Z,58.05
2018-01-08T03:42:58.586Z,58.20
2018-01-08T03:43:30.210Z,58.13
2018-01-08T03:44:01.849Z,58.18
2018-01-08T03:44:33.473Z,58.24
2018-01-08T03:45:05.094Z,58.13
2018-01-08T03:45:36.725Z,58.23
2018-01-08T03:46:08.375Z,58.37
2018-01-08T03:46:40.007Z,58.37
2018-01-08T03:47:11.630Z,58.22
2018-01-08T03:47:43.307Z,58.27
2018-01-08T03:48:14.931Z,58.21
2018-01-08T03:48:46.554Z,58.30
2018-01-08T03:49:18.177Z,58.26
2018-01-08T03:49:49.806Z,58.30
2018-01-08T03:50:21.430Z,58.29
2018-01-08T03:50:53.063Z,58.39
2018-01-08T03:51:24.694Z,58.43
2018-01-08T03:51:56.322Z,58.42
2018-01-08T03:52:27.950Z,58.51
2018-01-08T03:52:59.630Z,58.43
2018-01-08T03:53:31.262Z,58.44
2018-01-08T03:54:02.891Z,58.48
2018-01-08T03:54:34.514Z,58.51
2018-01-08T03:55:06.142Z,58.48
2018-01-08T03:55:37.766Z,58.57
2018-01-08T03:56:09.390Z,58.54
2018-01-08T03:56:41.019Z,58.32
2018-01-08T03:57:12.651Z,58.30
2018-01-08T03:57:44.278Z,58.46
2018-01-08T03:58:15.957Z,58.75
2018-01-08T03:58:47.586Z,58.92
2018-01-08T03:59:19.209Z,58.57
2018-01-08T03:59:50.838Z,58.71
2018-01-08T04:00:22.466Z,58.66
2018-01-08T04:00:54.099Z,58.72
2018-01-08T04:01:25.722Z,58.72
2018-01-08T04:01:57.349Z,58.86
2018-01-08T04:02:28.982Z,58.81
2018-01-08T04:03:00.620Z,58.74
2018-01-08T04:03:32.299Z,58.73
2018-01-08T04:04:03.958Z,58.95
2018-01-08T04:04:35.587Z,58.88
2018-01-08T04:05:07.214Z,58.92
2018-01-08T04:05:38.842Z,58.98
2018-01-08T04:06:10.470Z,59.04
2018-01-08T04:06:42.100Z,59.00
2018-01-08T04:07:13.730Z,58.76
2018-01-08T04:07:45.359Z,58.72
2018-01-08T04:08:16.982Z,58.51
2018-01-08T04:08:48.653Z,58.26
2018-01-08T04:09:20.282Z,58.26
2018-01-08T04:09:51.909Z,58.48
2018-01-08T04:10:23.539Z,58.81
2018-01-08T04:10:55.170Z,58.99
2018-01-08T04:11:26.802Z,58.92
2018-01-08T04:11:58.434Z,58.87
2018-01-08T04:12:30.067Z,58.77
2018-01-08T04:13:01.695Z,58.98
2018-01-08T04:13:33.326Z,58.79
2018-01-08T04:14:05.002Z,59.48
2018-01-08T04:14:36.629Z,59.11
2018-01-08T04:15:08.308Z,59.04
2018-01-08T04:15:39.912Z,59.02
2018-01-08T04:16:11.542Z,59.23
2018-01-08T04:16:43.175Z,59.10
2018-01-08T04:17:14.798Z,58.89
2018-01-08T04:17:46.418Z,59.02
2018-01-08T04:18:18.042Z,58.87
2018-01-08T04:18:49.667Z,59.08
2018-01-08T04:19:21.294Z,59.04
2018-01-08T04:19:52.922Z,59.42
2018-01-08T04:20:24.550Z,59.00
2018-01-08T04:20:56.178Z,59.21
2018-01-08T04:21:27.806Z,59.11
2018-01-08T04:21:59.434Z,59.06
2018-01-08T04:22:31.061Z,58.92
2018-01-08T04:23:02.691Z,59.09
2018-01-08T04:23:34.320Z,59.03
2018-01-08T04:24:05.946Z,59.01
2018-01-08T04:24:37.621Z,58.94
2018-01-08T04:25:09.250Z,59.15
2018-01-08T04:25:40.878Z,59.05
2018-01-08T04:26:12.501Z,58.88
2018-01-08T04:26:44.130Z,59.57
2018-01-08T04:27:15.754Z,59.36
2018-01-08T04:27:47.382Z,59.00
2018-01-08T04:28:19.011Z,59.08
2018-01-08T04:28:50.634Z,58.91
2018-01-08T04:29:22.258Z,58.86
2018-01-08T04:29:53.935Z,58.89
2018-01-08T04:30:25.562Z,58.89
2018-01-08T04:30:57.192Z,59.27
2018-01-08T04:31:28.819Z,59.04
2018-01-08T04:32:00.446Z,58.84
2018-01-08T04:32:32.078Z,58.89
2018-01-08T04:33:03.702Z,58.86
2018-01-08T04:33:35.340Z,58.91
2018-01-08T04:34:07.251Z,58.87
2018-01-08T04:34:38.874Z,58.86
2018-01-08T04:35:10.558Z,59.08
2018-01-08T04:35:42.182Z,59.20
2018-01-08T04:36:13.811Z,58.99
2018-01-08T04:36:45.439Z,59.22
2018-01-08T04:37:17.062Z,59.14
2018-01-08T04:37:48.696Z,59.00
2018-01-08T04:38:20.326Z,59.65
2018-01-08T04:38:51.954Z,59.70
2018-01-08T04:39:23.578Z,59.60
2018-01-08T04:39:55.207Z,59.45
2018-01-08T04:40:26.882Z,59.39
2018-01-08T04:40:58.506Z,59.32
2018-01-08T04:41:30.138Z,59.42
2018-01-08T04:42:01.763Z,59.54
2018-01-08T04:42:33.386Z,59.60
2018-01-08T04:43:05.006Z,59.52
2018-01-08T04:43:36.629Z,59.37
2018-01-08T04:44:08.253Z,59.26
2018-01-08T04:44:39.878Z,59.35
2018-01-08T04:45:11.510Z,59.36
2018-01-08T04:45:43.186Z,59.30
2018-01-08T04:46:14.807Z,59.24
2018-01-08T04:46:46.430Z,59.21
2018-01-08T04:47:18.054Z,59.39
2018-01-08T04:47:49.674Z,59.27
2018-01-08T04:48:21.298Z,59.54
2018-01-08T04:48:52.931Z,59.56
2018-01-08T04:49:24.558Z,59.29
2018-01-08T04:49:56.187Z,59.26
2018-01-08T04:50:27.819Z,59.35
2018-01-08T04:50:59.498Z,59.27
2018-01-08T04:51:31.122Z,59.41
2018-01-08T04:52:02.763Z,59.50
2018-01-08T04:52:34.386Z,59.64
2018-01-08T04:53:06.007Z,59.59
2018-01-08T04:53:37.634Z,59.58
2018-01-08T04:54:09.262Z,59.39
2018-01-08T04:54:40.893Z,59.48
2018-01-08T04:55:12.513Z,59.40
2018-01-08T04:55:44.143Z,59.61
2018-01-08T04:56:15.780Z,59.68
2018-01-08T04:56:47.411Z,59.70
2018-01-08T04:57:19.047Z,59.69
2018-01-08T04:57:50.675Z,59.76
2018-01-08T04:58:22.303Z,59.83
2018-01-08T04:58:53.926Z,59.92
2018-01-08T04:59:25.554Z,59.89
2018-01-08T04:59:57.178Z,60.04
2018-01-08T05:00:28.804Z,59.76
2018-01-08T05:01:00.435Z,59.80
2018-01-08T05:01:32.139Z,60.18
2018-01-08T05:02:03.771Z,60.12
2018-01-08T05:02:35.394Z,60.05
2018-01-08T05:03:07.019Z,60.10
2018-01-08T05:03:38.641Z,60.00
2018-01-08T05:04:10.270Z,59.98
2018-01-08T05:04:41.898Z,59.99
2018-01-08T05:05:13.527Z,60.03
2018-01-08T05:05:45.158Z,60.04
2018-01-08T05:06:16.825Z,60.21
2018-01-08T05:06:48.497Z,60.39
2018-01-08T05:07:20.126Z,60.20
2018-01-08T05:07:51.759Z,60.23
2018-01-08T05:08:23.386Z,60.34
2018-01-08T05:08:55.010Z,60.35
2018-01-08T05:09:26.638Z,60.45
2018-01-08T05:09:58.266Z,60.66
2018-01-08T05:10:29.890Z,60.41
2018-01-08T05:11:01.518Z,60.40
2018-01-08T05:11:33.141Z,60.51
2018-01-08T05:12:04.814Z,60.49
2018-01-08T05:12:36.443Z,60.87
2018-01-08T05:13:08.066Z,60.98
2018-01-08T05:13:39.694Z,61.03
2018-01-08T05:14:11.323Z,60.90
2018-01-08T05:14:42.954Z,61.07
2018-01-08T05:15:14.578Z,61.13
2018-01-08T05:15:46.198Z,61.12
2018-01-08T05:16:17.819Z,61.37
2018-01-08T05:16:49.442Z,61.12
2018-01-08T05:17:21.113Z,61.17
2018-01-08T05:17:52.751Z,61.32
2018-01-08T05:18:24.406Z,61.17
2018-01-08T05:18:56.034Z,61.64
2018-01-08T05:19:27.662Z,61.44
2018-01-08T05:19:59.290Z,61.46
2018-01-08T05:20:30.918Z,61.56
2018-01-08T05:21:02.547Z,61.63
2018-01-08T05:21:34.170Z,61.75
2018-01-08T05:22:05.798Z,61.66
2018-01-08T05:22:37.476Z,61.62
2018-01-08T05:23:09.098Z,61.83
2018-01-08T05:23:40.726Z,61.75
2018-01-08T05:24:12.355Z,61.74
2018-01-08T05:24:43.982Z,61.71
2018-01-08T05:25:15.617Z,61.62
2018-01-08T05:25:47.242Z,61.54
2018-01-08T05:26:18.868Z,61.68
2018-01-08T05:26:50.498Z,61.59
2018-01-08T05:27:22.124Z,61.68
2018-01-08T05:27:53.803Z,61.61
2018-01-08T05:28:25.431Z,61.47
2018-01-08T05:28:57.058Z,61.12
2018-01-08T05:29:28.691Z,61.09
2018-01-08T05:30:00.349Z,61.19
2018-01-08T05:30:31.978Z,60.97
2018-01-08T05:31:03.606Z,60.82
2018-01-08T05:31:35.225Z,60.61
2018-01-08T05:32:06.846Z,60.65
2018-01-08T05:32:38.466Z,60.82
2018-01-08T05:33:10.090Z,60.72
2018-01-08T05:33:41.714Z,60.52
2018-01-08T05:34:13.334Z,60.51
2018-01-08T05:34:44.957Z,60.50
2018-01-08T05:35:16.586Z,60.79
2018-01-08T05:35:48.218Z,60.67
2018-01-08T05:36:19.846Z,60.49
2018-01-08T05:36:51.469Z,60.33
2018-01-08T05:37:23.089Z,60.49
2018-01-08T05:37:54.717Z,60.14
2018-01-08T05:38:26.394Z,60.30
2018-01-08T05:38:58.018Z,60.08
2018-01-08T05:39:29.646Z,60.10
2018-01-08T05:40:01.272Z,59.89
2018-01-08T05:40:32.902Z,60.09
2018-01-08T05:41:04.534Z,59.84
2018-01-08T05:41:36.157Z,59.72
2018-01-08T05:42:07.782Z,59.66
2018-01-08T05:42:39.411Z,59.60
2018-01-08T05:43:11.038Z,59.68
2018-01-08T05:43:42.709Z,59.70
2018-01-08T05:44:14.334Z,59.66
2018-01-08T05:44:45.987Z,59.57
2018-01-08T05:45:17.614Z,59.55
2018-01-08T05:45:49.246Z,59.38
2018-01-08T05:46:20.874Z,59.26
2018-01-08T05:46:52.551Z,59.55
2018-01-08T05:47:24.166Z,59.31
2018-01-08T05:47:55.792Z,59.17
2018-01-08T05:48:27.422Z,59.15
2018-01-08T05:48:59.094Z,59.25
2018-01-08T05:49:30.717Z,59.20
2018-01-08T05:50:02.347Z,59.28
2018-01-08T05:50:33.978Z,59.48
2018-01-08T05:51:05.601Z,59.19
2018-01-08T05:51:37.225Z,59.21
2018-01-08T05:52:08.854Z,59.18
2018-01-08T05:52:40.478Z,59.25
2018-01-08T05:53:12.097Z,59.21
2018-01-08T05:53:43.717Z,59.03
2018-01-08T05:54:15.389Z,58.90
2018-01-08T05:54:47.018Z,59.02
2018-01-08T05:55:18.642Z,58.87
2018-01-08T05:55:50.278Z,59.02
2018-01-08T05:56:21.901Z,58.95
2018-01-08T05:56:53.529Z,59.00
2018-01-08T05:57:25.158Z,59.18
2018-01-08T05:57:56.786Z,59.06
2018-01-08T05:58:28.409Z,58.87
2018-01-08T05:59:00.043Z,59.00
2018-01-08T05:59:31.726Z,59.01
2018-01-08T06:00:03.359Z,59.09
2018-01-08T06:00:34.989Z,59.06
2018-01-08T06:01:06.614Z,58.91
2018-01-08T06:01:38.243Z,59.02
2018-01-08T06:02:09.870Z,58.83
2018-01-08T06:02:41.498Z,58.92
2018-01-08T06:03:13.126Z,58.84
2018-01-08T06:03:44.754Z,58.84
2018-01-08T06:04:16.378Z,58.87
2018-01-08T06:04:48.050Z,58.94
2018-01-08T06:05:19.679Z,59.02
2018-01-08T06:05:51.306Z,59.05
2018-01-08T06:06:22.929Z,59.18
2018-01-08T06:06:54.559Z,59.06
2018-01-08T06:07:26.182Z,59.21
2018-01-08T06:07:57.811Z,59.24
2018-01-08T06:08:29.438Z,59.10
2018-01-08T06:09:01.070Z,59.25
2018-01-08T06:09:32.699Z,59.34
2018-01-08T06:10:04.321Z,59.49
2018-01-08T06:10:35.945Z,59.31
2018-01-08T06:11:07.570Z,59.56
2018-01-08T06:11:39.193Z,59.47
2018-01-08T06:12:10.830Z,59.44
2018-01-08T06:12:42.454Z,59.61
2018-01-08T06:13:14.083Z,59.68
2018-01-08T06:13:45.706Z,59.57
2018-01-08T06:14:17.334Z,59.69
2018-01-08T06:14:48.965Z,59.54
2018-01-08T06:15:20.641Z,59.84
2018-01-08T06:15:52.262Z,59.58
2018-01-08T06:16:23.886Z,59.45
2018-01-08T06:16:55.514Z,59.78
2018-01-08T06:17:27.151Z,59.69
2018-01-08T06:17:58.782Z,60.08
2018-01-08T06:18:30.410Z,59.92
2018-01-08T06:19:02.039Z,59.65
2018-01-08T06:19:33.667Z,59.95
2018-01-08T06:20:05.295Z,60.18
2018-01-08T06:20:36.976Z,59.96
2018-01-08T06:21:08.597Z,60.01
2018-01-08T06:21:40.222Z,60.13
2018-01-08T06:22:11.849Z,60.19
2018-01-08T06:22:43.479Z,60.08
2018-01-08T06:23:15.102Z,60.13
2018-01-08T06:23:46.731Z,60.36
2018-01-08T06:24:18.362Z,60.54
2018-01-08T06:24:49.991Z,60.30
2018-01-08T06:25:21.618Z,60.52
2018-01-08T06:25:53.290Z,60.68
2018-01-08T06:26:24.926Z,60.54
2018-01-08T06:26:56.553Z,60.20
2018-01-08T06:27:28.174Z,60.28
2018-01-08T06:27:59.802Z,60.83
2018-01-08T06:28:31.429Z,60.65
2018-01-08T06:29:03.059Z,60.84
2018-01-08T06:29:34.681Z,60.69
2018-01-08T06:30:06.310Z,60.62
2018-01-08T06:30:37.934Z,60.86
2018-01-08T06:31:09.608Z,61.05
2018-01-08T06:31:41.230Z,61.08
2018-01-08T06:32:12.850Z,60.94
2018-01-08T06:32:44.478Z,61.21
2018-01-08T06:33:16.106Z,61.14
2018-01-08T06:33:47.736Z,61.51
2018-01-08T06:34:19.361Z,61.61
2018-01-08T06:34:50.995Z,61.39
2018-01-08T06:35:22.618Z,61.24
2018-01-08T06:35:54.242Z,61.42
2018-01-08T06:36:25.914Z,61.49
2018-01-08T06:36:57.543Z,61.53
2018-01-08T06:37:29.174Z,61.60
2018-01-08T06:38:00.803Z,61.79
2018-01-08T06:38:32.432Z,61.58
2018-01-08T06:39:04.087Z,61.71
2018-01-08T06:39:35.710Z,61.43
2018-01-08T06:40:07.338Z,61.66
2018-01-08T06:40:38.966Z,61.76
2018-01-08T06:41:10.594Z,61.74
2018-01-08T06:41:42.267Z,61.68
2018-01-08T06:42:13.895Z,61.60
2018-01-08T06:42:45.521Z,61.84
2018-01-08T06:43:17.165Z,61.83
2018-01-08T06:43:48.794Z,61.58
2018-01-08T06:44:20.418Z,61.67
2018-01-08T06:44:52.047Z,61.71
2018-01-08T06:45:23.670Z,61.77
2018-01-08T06:45:55.298Z,61.82
2018-01-08T06:46:26.926Z,61.65
2018-01-08T06:46:58.549Z,61.58
2018-01-08T06:47:30.179Z,61.60